Time;durP1;ratioP1;P1;durP2;ratioP2;P2;SDS_P1;SDS_P2;PMS_P1;PMS_P2;Temp;Humidity;BMP_temperature;BMP_pressure;BME280_temperature;BME280_humidity;BME280_pressure;Samples;Min_cycle;Max_cycle;Signal;HPM_P1;HPM_P2
2022/07/11 00:01:40;;;;;;;2.97;1.47;;;15.10;99.90;;;;;;5013900;28;20447;-64
2022/07/11 00:04:07;;;;;;;2.33;1.47;;;15.00;99.90;;;;;;5013676;28;20223;-64
2022/07/11 00:06:34;;;;;;;1.97;1.60;;;15.00;99.90;;;;;;5013531;28;20613;-64
2022/07/11 00:09:01;;;;;;;1.73;1.50;;;15.10;99.90;;;;;;5015358;28;20203;-64
2022/07/11 00:11:30;;;;;;;3.50;1.63;;;15.20;99.90;;;;;;5015143;28;20236;-64
2022/07/11 00:13:57;;;;;;;2.67;1.80;;;15.10;99.90;;;;;;5014335;28;20192;-64
2022/07/11 00:16:24;;;;;;;3.13;1.93;;;15.10;99.90;;;;;;5012802;28;20561;-64
2022/07/11 00:18:51;;;;;;;1.83;1.73;;;15.10;99.90;;;;;;5015996;28;20233;-64
2022/07/11 00:21:19;;;;;;;2.00;1.87;;;15.10;99.90;;;;;;5014128;28;20201;-64
2022/07/11 00:23:46;;;;;;;1.90;1.80;;;15.10;99.90;;;;;;5014951;28;20446;-64
2022/07/11 00:26:12;;;;;;;3.87;2.03;;;15.10;99.90;;;;;;5024317;28;20729;-64
2022/07/11 00:28:41;;;;;;;1.90;1.80;;;15.00;99.90;;;;;;5012336;28;20228;-64
2022/07/11 00:31:08;;;;;;;1.63;1.57;;;15.00;99.90;;;;;;5013004;28;20591;-64
2022/07/11 00:33:35;;;;;;;3.43;1.97;;;15.00;99.90;;;;;;5013870;28;20667;-64
2022/07/11 00:36:02;;;;;;;1.83;1.70;;;15.00;99.90;;;;;;5018867;28;20275;-64
2022/07/11 00:38:29;;;;;;;1.90;1.80;;;15.00;99.90;;;;;;5012715;28;20562;-64
2022/07/11 00:40:56;;;;;;;1.83;1.73;;;15.00;99.90;;;;;;5012276;28;21006;-64
2022/07/11 00:43:31;;;;;;;2.03;1.60;;;15.00;99.90;;;;;;5013483;28;20233;-64
2022/07/11 00:46:00;;;;;;;2.03;1.83;;;15.00;99.90;;;;;;5012042;28;20572;-64
2022/07/11 00:48:27;;;;;;;2.90;1.50;;;15.00;99.90;;;;;;5012665;28;20212;-64
2022/07/11 00:50:54;;;;;;;1.47;1.30;;;14.90;99.90;;;;;;5011419;28;20623;-64
2022/07/11 00:53:21;;;;;;;2.07;1.60;;;14.90;99.90;;;;;;5012137;28;20255;-64
2022/07/11 00:55:49;;;;;;;2.33;1.63;;;14.90;99.90;;;;;;5022450;28;20208;-64
2022/07/11 00:58:16;;;;;;;2.33;1.30;;;15.00;99.90;;;;;;5018287;28;20246;-64
2022/07/11 01:00:43;;;;;;;1.60;1.40;;;15.00;99.90;;;;;;5013970;28;20616;-64
2022/07/11 01:03:12;;;;;;;3.03;1.53;;;14.90;99.90;;;;;;5018917;28;20228;-64
2022/07/11 01:05:39;;;;;;;2.53;1.70;;;14.90;99.90;;;;;;5014182;28;20204;-64
2022/07/11 01:08:06;;;;;;;3.30;1.67;;;14.90;99.90;;;;;;5015697;28;20203;-64
2022/07/11 01:10:33;;;;;;;1.83;1.17;;;14.80;99.90;;;;;;5027758;28;20207;-64
2022/07/11 01:13:00;;;;;;;2.40;1.47;;;14.90;99.90;;;;;;5010356;28;20197;-64
2022/07/11 01:15:28;;;;;;;1.13;1.10;;;14.90;99.90;;;;;;5012210;28;20280;-64
2022/07/11 01:17:54;;;;;;;1.53;1.40;;;14.90;99.90;;;;;;5012710;28;20278;-64
2022/07/11 01:20:23;;;;;;;1.30;1.20;;;14.80;99.90;;;;;;5011759;28;20204;-64
2022/07/11 01:22:56;;;;;;;3.70;1.90;;;14.90;99.90;;;;;;5011446;28;20207;-64
2022/07/11 01:25:34;;;;;;;4.67;1.40;;;14.80;99.90;;;;;;5012406;28;20200;-64
2022/07/11 01:28:04;;;;;;;2.40;1.20;;;14.90;99.90;;;;;;5010078;28;20204;-64
2022/07/11 01:30:32;;;;;;;4.53;1.70;;;14.90;99.90;;;;;;5012355;28;20564;-64
2022/07/11 01:33:00;;;;;;;1.50;1.40;;;14.90;99.90;;;;;;5012894;28;20223;-64
2022/07/11 01:35:29;;;;;;;1.30;1.23;;;14.80;99.90;;;;;;5024667;28;20200;-64
2022/07/11 01:37:56;;;;;;;2.00;1.43;;;14.80;99.90;;;;;;5011327;28;20246;-64
2022/07/11 01:40:24;;;;;;;3.53;1.83;;;14.80;99.90;;;;;;5019210;28;20235;-64
2022/07/11 01:42:51;;;;;;;2.97;1.27;;;14.70;99.90;;;;;;5010781;28;20204;-64
2022/07/11 01:45:18;;;;;;;2.00;1.30;;;14.70;99.90;;;;;;5011223;28;20292;-64
2022/07/11 01:47:46;;;;;;;1.63;1.20;;;14.70;99.90;;;;;;5010419;28;20228;-64
2022/07/11 01:50:12;;;;;;;1.53;1.10;;;14.60;99.90;;;;;;5023731;28;20313;-64
2022/07/11 01:52:40;;;;;;;1.93;1.53;;;14.60;99.90;;;;;;5014233;28;20196;-64
2022/07/11 01:55:08;;;;;;;1.67;1.20;;;14.60;99.90;;;;;;5018337;28;20208;-64
2022/07/11 01:57:36;;;;;;;2.17;1.60;;;14.60;99.90;;;;;;5021434;28;20204;-64
2022/07/11 02:00:04;;;;;;;1.40;1.10;;;14.60;99.90;;;;;;5010165;28;20200;-64
2022/07/11 02:02:31;;;;;;;1.97;1.47;;;14.60;99.90;;;;;;5011588;28;20572;-64
2022/07/11 02:04:58;;;;;;;2.67;1.37;;;14.50;99.90;;;;;;5012233;28;20200;-64
2022/07/11 02:10:07;;;;;;;2.90;1.70;;;14.60;99.90;;;;;;5010424;28;20246;-64
2022/07/11 02:12:36;;;;;;;1.50;1.40;;;14.60;99.90;;;;;;5010216;28;20825;-64
2022/07/11 02:15:03;;;;;;;3.00;1.30;;;14.60;99.90;;;;;;5011161;28;20208;-64
2022/07/11 02:17:29;;;;;;;1.30;1.20;;;14.60;99.90;;;;;;5011210;28;20204;-64
2022/07/11 02:19:56;;;;;;;1.40;1.27;;;14.50;99.90;;;;;;5010440;28;20311;-64
2022/07/11 02:22:24;;;;;;;1.37;1.10;;;14.50;99.90;;;;;;5026417;28;20291;-64
2022/07/11 02:24:51;;;;;;;3.83;1.77;;;14.50;99.90;;;;;;5026138;28;20259;-64
2022/07/11 02:27:18;;;;;;;1.30;1.17;;;14.50;99.90;;;;;;5011036;28;20285;-64
2022/07/11 02:29:46;;;;;;;3.70;1.97;;;14.50;99.90;;;;;;5009994;28;20496;-66
2022/07/11 02:32:13;;;;;;;3.97;1.93;;;14.50;99.90;;;;;;5010670;28;20196;-66
2022/07/11 02:34:46;;;;;;;1.83;1.60;;;14.50;99.90;;;;;;5010846;28;20224;-66
2022/07/11 02:37:13;;;;;;;2.20;1.67;;;14.50;99.90;;;;;;5012811;28;20200;-65
2022/07/11 02:39:47;;;;;;;1.70;1.60;;;14.50;99.90;;;;;;5011927;28;20278;-66
2022/07/11 02:42:14;;;;;;;2.27;1.87;;;14.60;99.90;;;;;;4995024;28;20232;-66
2022/07/11 02:44:42;;;;;;;1.70;1.60;;;14.60;99.90;;;;;;5011210;28;20196;-66
2022/07/11 02:47:10;;;;;;;2.67;1.83;;;14.60;99.90;;;;;;4992342;28;20726;-66
2022/07/11 02:49:37;;;;;;;1.50;1.40;;;14.60;99.90;;;;;;4997145;28;20206;-66
2022/07/11 02:52:05;;;;;;;1.73;1.63;;;14.70;99.90;;;;;;5007249;28;20216;-65
2022/07/11 02:54:32;;;;;;;1.80;1.70;;;14.70;99.90;;;;;;5011244;28;20690;-65
2022/07/11 02:56:59;;;;;;;1.80;1.60;;;14.70;99.90;;;;;;5011397;28;20200;-65
2022/07/11 02:59:26;;;;;;;2.13;1.60;;;14.60;99.90;;;;;;5010701;28;20217;-65
2022/07/11 03:01:53;;;;;;;2.50;1.63;;;14.60;99.90;;;;;;5011913;28;20631;-65
2022/07/11 03:04:21;;;;;;;3.17;1.63;;;14.70;99.90;;;;;;5011319;28;20287;-65
2022/07/11 03:06:48;;;;;;;2.03;1.83;;;14.70;99.90;;;;;;5011430;28;20246;-66
2022/07/11 03:09:15;;;;;;;2.50;1.63;;;14.60;99.90;;;;;;5011046;28;20567;-66
2022/07/11 03:11:42;;;;;;;2.03;1.83;;;14.70;99.90;;;;;;5011079;28;20628;-66
2022/07/11 03:14:10;;;;;;;6.53;4.87;;;14.80;99.90;;;;;;5011203;28;20254;-66
2022/07/11 03:16:36;;;;;;;8.50;5.80;;;14.80;99.90;;;;;;5010907;28;20763;-66
2022/07/11 03:19:03;;;;;;;4.83;2.50;;;14.80;99.90;;;;;;5010955;28;20220;-66
2022/07/11 03:21:32;;;;;;;2.30;2.10;;;14.70;99.90;;;;;;5011507;28;20207;-66
2022/07/11 03:23:59;;;;;;;4.47;3.43;;;14.70;99.90;;;;;;5011496;28;20724;-66
2022/07/11 03:26:26;;;;;;;2.70;2.50;;;14.80;99.90;;;;;;5011365;28;20675;-66
2022/07/11 03:28:53;;;;;;;2.87;2.53;;;14.80;99.90;;;;;;5011306;28;20614;-66
2022/07/11 03:31:20;;;;;;;2.60;2.20;;;14.80;99.90;;;;;;5011214;28;20287;-66
2022/07/11 03:33:47;;;;;;;2.80;2.10;;;14.80;99.90;;;;;;5011504;28;20604;-69
2022/07/11 03:36:14;;;;;;;2.97;2.20;;;14.90;99.90;;;;;;5011207;28;20204;-65
2022/07/11 03:38:42;;;;;;;3.13;2.50;;;14.80;99.90;;;;;;5011318;28;20223;-66
2022/07/11 03:41:09;;;;;;;2.90;2.43;;;14.80;99.90;;;;;;5011196;28;20292;-66
2022/07/11 03:43:36;;;;;;;5.03;2.20;;;14.80;99.90;;;;;;5011414;28;20298;-66
2022/07/11 03:46:03;;;;;;;2.60;2.20;;;14.80;99.90;;;;;;5011155;28;20224;-66
2022/07/11 03:48:30;;;;;;;2.97;2.50;;;14.90;99.90;;;;;;5011227;28;20263;-66
2022/07/11 03:50:57;;;;;;;3.07;2.37;;;14.80;99.90;;;;;;5010865;28;20201;-66
2022/07/11 03:53:24;;;;;;;2.83;2.20;;;14.70;99.90;;;;;;5011647;28;20205;-66
2022/07/11 03:55:52;;;;;;;3.73;2.57;;;14.70;99.90;;;;;;5011180;28;20436;-66
2022/07/11 03:58:19;;;;;;;3.77;2.93;;;14.80;99.90;;;;;;5011253;28;20225;-66
2022/07/11 04:00:46;;;;;;;2.53;2.33;;;14.80;99.90;;;;;;5010782;28;20208;-66
2022/07/11 04:03:13;;;;;;;4.57;2.47;;;14.80;99.90;;;;;;5011231;28;20201;-66
2022/07/11 04:05:40;;;;;;;3.90;3.03;;;14.70;99.90;;;;;;5014576;28;20255;-66
2022/07/11 04:08:07;;;;;;;5.37;2.63;;;14.70;99.90;;;;;;5014021;28;20204;-66
2022/07/11 04:10:34;;;;;;;4.00;2.77;;;14.90;99.90;;;;;;5013088;28;20251;-67
2022/07/11 04:13:02;;;;;;;3.70;2.90;;;15.00;99.90;;;;;;5013727;28;20664;-66
2022/07/11 04:15:29;;;;;;;3.53;2.93;;;15.00;99.90;;;;;;5017203;28;20232;-66
2022/07/11 04:17:56;;;;;;;3.40;3.10;;;15.00;99.90;;;;;;5013741;28;20247;-66
2022/07/11 04:20:23;;;;;;;6.20;3.03;;;14.90;99.90;;;;;;5019246;28;20319;-66
2022/07/11 04:22:50;;;;;;;5.20;3.10;;;15.00;99.90;;;;;;5025492;28;20236;-66
2022/07/11 04:25:17;;;;;;;3.70;2.97;;;14.90;99.90;;;;;;5029123;28;20204;-66
2022/07/11 04:27:44;;;;;;;7.70;5.50;;;15.00;99.90;;;;;;5028934;28;20250;-66
2022/07/11 04:30:12;;;;;;;5.37;3.20;;;15.00;99.90;;;;;;5020421;28;20292;-66
2022/07/11 04:32:39;;;;;;;5.43;3.20;;;15.00;99.90;;;;;;5011284;28;20728;-66
2022/07/11 04:35:07;;;;;;;5.03;3.37;;;15.00;99.90;;;;;;5013019;28;20205;-66
2022/07/11 04:37:34;;;;;;;6.53;3.77;;;15.10;99.90;;;;;;5013912;28;20287;-66
2022/07/11 04:40:01;;;;;;;7.13;4.00;;;15.00;99.90;;;;;;5023973;28;20682;-66
2022/07/11 04:42:28;;;;;;;4.97;3.23;;;15.00;99.90;;;;;;5018459;28;20204;-66
2022/07/11 04:44:55;;;;;;;8.80;4.00;;;15.00;99.90;;;;;;5013467;28;20299;-66
2022/07/11 04:47:23;;;;;;;5.67;4.47;;;15.00;99.90;;;;;;5013912;28;20307;-66
2022/07/11 04:49:51;;;;;;;6.50;4.27;;;15.00;99.90;;;;;;5013055;28;20208;-66
2022/07/11 04:52:18;;;;;;;4.83;3.57;;;15.00;99.90;;;;;;5014088;28;20211;-66
2022/07/11 04:54:45;;;;;;;8.97;4.13;;;14.90;99.90;;;;;;5015313;28;20731;-66
2022/07/11 04:57:11;;;;;;;6.30;4.53;;;14.90;99.90;;;;;;5019346;28;20222;-66
2022/07/11 04:59:39;;;;;;;6.23;4.10;;;14.90;99.90;;;;;;5024097;28;20220;-66
2022/07/11 05:02:06;;;;;;;10.30;4.47;;;15.00;99.90;;;;;;5026447;28;20567;-66
2022/07/11 05:04:34;;;;;;;7.03;4.10;;;15.00;99.90;;;;;;5020169;28;20548;-66
2022/07/11 05:07:01;;;;;;;6.17;3.73;;;15.00;99.90;;;;;;5024101;28;20559;-66
2022/07/11 05:09:28;;;;;;;7.67;4.70;;;15.00;99.90;;;;;;5023978;28;20200;-66
2022/07/11 05:11:55;;;;;;;5.40;3.97;;;15.00;99.90;;;;;;5032437;28;20290;-66
2022/07/11 05:14:22;;;;;;;5.77;3.80;;;15.00;99.90;;;;;;5024973;28;20196;-66
2022/07/11 05:16:49;;;;;;;8.37;4.73;;;15.10;99.90;;;;;;5013078;28;20664;-66
2022/07/11 05:19:16;;;;;;;6.47;4.50;;;15.10;99.90;;;;;;5012356;28;20307;-66
2022/07/11 05:21:44;;;;;;;7.47;4.27;;;15.20;99.90;;;;;;5012411;28;20291;-66
2022/07/11 05:24:11;;;;;;;8.93;4.60;;;15.20;99.90;;;;;;5013523;28;20274;-66
2022/07/11 05:26:38;;;;;;;8.33;4.70;;;15.30;99.90;;;;;;5012402;28;20204;-66
2022/07/11 05:29:05;;;;;;;6.57;4.20;;;15.30;99.90;;;;;;5011738;28;20306;-66
2022/07/11 05:31:33;;;;;;;7.40;4.30;;;15.40;99.90;;;;;;5019776;28;20235;-66
2022/07/11 05:34:00;;;;;;;12.23;4.90;;;15.30;99.90;;;;;;5021172;28;20274;-66
2022/07/11 05:36:26;;;;;;;5.27;4.37;;;15.30;99.90;;;;;;5011965;28;20262;-66
2022/07/11 05:38:55;;;;;;;8.37;4.80;;;15.30;99.90;;;;;;5013051;28;20212;-66
2022/07/11 05:41:22;;;;;;;7.43;3.93;;;15.20;99.90;;;;;;5011358;28;20263;-66
2022/07/11 05:43:49;;;;;;;8.68;4.55;;;15.30;99.90;;;;;;5012230;28;20755;-66
2022/07/11 05:46:16;;;;;;;8.23;4.07;;;15.30;99.90;;;;;;5011243;28;20247;-66
2022/07/11 05:48:43;;;;;;;5.83;4.03;;;15.30;99.90;;;;;;5012252;28;20213;-66
2022/07/11 05:51:11;;;;;;;9.80;4.70;;;15.30;99.90;;;;;;5012675;28;20204;-66
2022/07/11 05:53:39;;;;;;;8.90;4.83;;;15.20;99.90;;;;;;5013121;28;20255;-66
2022/07/11 05:56:08;;;;;;;5.73;4.10;;;15.10;99.90;;;;;;5013120;28;20211;-66
2022/07/11 05:58:35;;;;;;;4.90;4.30;;;15.00;99.90;;;;;;5011795;28;20200;-67
2022/07/11 06:01:01;;;;;;;5.23;4.40;;;15.10;99.90;;;;;;5013324;28;20228;-66
2022/07/11 06:03:28;;;;;;;5.83;4.70;;;15.00;99.90;;;;;;5013188;28;20203;-66
2022/07/11 06:05:55;;;;;;;6.83;4.57;;;15.10;99.90;;;;;;5013409;28;20681;-66
2022/07/11 06:11:10;;;;;;;11.00;4.57;;;15.10;99.90;;;;;;5012771;28;20274;-66
2022/07/11 06:13:37;;;;;;;7.73;4.57;;;15.20;99.90;;;;;;5012725;28;20278;-66
2022/07/11 06:16:04;;;;;;;5.03;3.93;;;15.20;99.90;;;;;;5013318;28;20618;-66
2022/07/11 06:18:31;;;;;;;6.33;3.93;;;15.30;99.90;;;;;;5012569;28;20211;-67
2022/07/11 06:20:58;;;;;;;6.13;3.70;;;15.40;99.90;;;;;;5012679;28;20225;-66
2022/07/11 06:23:25;;;;;;;5.13;3.27;;;15.50;99.90;;;;;;5019248;28;20210;-66
2022/07/11 06:25:52;;;;;;;6.60;3.30;;;15.60;99.90;;;;;;5022629;28;20678;-66
2022/07/11 06:28:20;;;;;;;3.80;3.40;;;15.70;99.90;;;;;;5012379;28;20215;-66
2022/07/11 06:30:47;;;;;;;5.43;3.37;;;15.70;99.90;;;;;;5032331;28;20204;-66
2022/07/11 06:33:16;;;;;;;6.23;3.70;;;15.80;99.90;;;;;;5032151;28;20204;-66
2022/07/11 06:35:42;;;;;;;5.10;3.30;;;16.00;99.90;;;;;;4993465;28;20744;-66
2022/07/11 06:38:09;;;;;;;4.63;3.43;;;16.00;99.90;;;;;;4992705;28;20215;-66
2022/07/11 06:40:36;;;;;;;7.07;2.93;;;16.10;99.90;;;;;;5011335;28;20223;-66
2022/07/11 06:43:03;;;;;;;3.73;2.87;;;16.30;99.90;;;;;;5012290;28;20211;-66
2022/07/11 06:45:31;;;;;;;4.93;2.90;;;16.30;99.90;;;;;;5012107;28;20230;-66
2022/07/11 06:47:58;;;;;;;3.47;2.57;;;16.20;99.90;;;;;;5012064;28;20211;-66
2022/07/11 06:50:24;;;;;;;3.30;2.42;;;16.50;99.90;;;;;;5012468;28;20212;-66
2022/07/11 06:52:51;;;;;;;4.85;2.70;;;16.80;99.90;;;;;;5011403;28;20204;-66
2022/07/11 06:55:18;;;;;;;2.95;2.50;;;16.80;99.90;;;;;;5012727;28;20599;-66
2022/07/11 06:57:45;;;;;;;3.90;2.20;;;17.00;99.90;;;;;;5012264;28;20300;-66
2022/07/11 07:00:13;;;;;;;3.97;2.38;;;17.00;99.90;;;;;;5011475;28;20227;-66
2022/07/11 07:02:41;;;;;;;4.18;2.10;;;17.10;99.90;;;;;;5012504;28;20208;-66
2022/07/11 07:05:09;;;;;;;3.92;1.77;;;17.10;99.90;;;;;;5011931;28;20216;-66
2022/07/11 07:07:36;;;;;;;4.10;1.90;;;17.20;99.90;;;;;;5012640;28;20254;-66
2022/07/11 07:10:03;;;;;;;1.98;1.80;;;17.30;99.90;;;;;;5012533;28;20667;-66
2022/07/11 07:12:30;;;;;;;3.13;1.30;;;17.30;99.90;;;;;;5012515;28;20200;-66
2022/07/11 07:14:56;;;;;;;3.00;1.23;;;17.20;99.90;;;;;;5013336;28;20208;-66
2022/07/11 07:17:23;;;;;;;2.67;1.55;;;17.20;99.90;;;;;;5012553;28;20569;-66
2022/07/11 07:19:51;;;;;;;1.58;1.48;;;17.10;99.90;;;;;;5012625;28;20216;-66
2022/07/11 07:22:18;;;;;;;1.52;1.10;;;17.10;99.90;;;;;;5023948;28;20571;-66
2022/07/11 07:24:45;;;;;;;1.33;1.20;;;17.20;99.90;;;;;;5014830;28;20567;-66
2022/07/11 07:27:12;;;;;;;3.33;1.48;;;17.20;99.90;;;;;;5011234;28;20204;-66
2022/07/11 07:29:39;;;;;;;2.33;1.50;;;17.30;99.90;;;;;;5011570;28;20219;-66
2022/07/11 07:32:07;;;;;;;2.13;1.60;;;17.30;99.90;;;;;;5011657;28;20299;-66
2022/07/11 07:34:34;;;;;;;3.38;1.55;;;17.30;99.90;;;;;;5011261;28;20204;-66
2022/07/11 07:37:02;;;;;;;1.38;1.20;;;17.40;99.90;;;;;;5012144;28;20200;-66
2022/07/11 07:39:29;;;;;;;1.48;1.38;;;17.40;99.90;;;;;;5013425;28;20223;-66
2022/07/11 07:41:55;;;;;;;2.50;1.70;;;17.60;99.90;;;;;;5014551;28;20200;-66
2022/07/11 07:44:22;;;;;;;1.30;1.15;;;17.50;99.90;;;;;;5015330;28;20208;-66
2022/07/11 07:46:49;;;;;;;2.63;1.30;;;17.40;99.90;;;;;;5015111;28;20613;-66
2022/07/11 07:49:16;;;;;;;1.60;1.42;;;17.30;99.90;;;;;;5015570;28;20200;-66
2022/07/11 07:51:43;;;;;;;2.47;1.63;;;17.40;99.90;;;;;;5016003;28;20199;-66
2022/07/11 07:54:13;;;;;;;2.95;1.50;;;17.50;99.90;;;;;;5019841;28;20746;-66
2022/07/11 07:56:40;;;;;;;3.22;1.42;;;17.50;99.90;;;;;;5019114;28;20201;-66
2022/07/11 07:59:07;;;;;;;2.40;1.50;;;17.40;99.90;;;;;;5014829;28;20205;-66
2022/07/11 08:01:35;;;;;;;2.47;1.23;;;17.40;99.90;;;;;;5014909;28;20441;-66
2022/07/11 08:04:02;;;;;;;4.65;1.55;;;17.50;99.90;;;;;;5015839;28;20199;-66
2022/07/11 08:06:29;;;;;;;1.20;1.10;;;17.50;99.90;;;;;;5015307;28;20682;-66
2022/07/11 08:08:56;;;;;;;2.90;1.55;;;17.60;99.90;;;;;;5015575;28;20208;-66
2022/07/11 08:11:24;;;;;;;1.98;1.77;;;17.70;99.90;;;;;;5015429;28;20219;-66
2022/07/11 08:13:51;;;;;;;3.72;2.10;;;17.70;99.90;;;;;;5014714;28;20701;-66
2022/07/11 08:16:18;;;;;;;2.42;2.10;;;17.60;99.90;;;;;;5015089;28;20584;-66
2022/07/11 08:18:45;;;;;;;4.57;2.20;;;17.60;99.90;;;;;;5020309;28;20219;-66
2022/07/11 08:21:12;;;;;;;4.07;2.50;;;17.40;99.90;;;;;;5025310;28;20697;-66
2022/07/11 08:23:39;;;;;;;4.28;2.45;;;17.50;99.90;;;;;;5029805;28;20542;-66
2022/07/11 08:26:06;;;;;;;4.60;2.30;;;17.40;99.90;;;;;;5015391;28;20686;-66
2022/07/11 08:28:34;;;;;;;2.10;2.00;;;17.40;99.90;;;;;;5014420;28;20208;-66
2022/07/11 08:31:01;;;;;;;2.53;2.08;;;17.40;99.90;;;;;;5015299;28;20200;-66
2022/07/11 08:33:28;;;;;;;7.22;2.05;;;17.40;99.90;;;;;;5014591;28;20211;-66
2022/07/11 08:35:55;;;;;;;3.85;2.30;;;17.50;99.90;;;;;;5015118;28;20208;-66
2022/07/11 08:38:21;;;;;;;2.25;2.05;;;17.50;99.90;;;;;;5014768;28;20548;-66
2022/07/11 08:40:50;;;;;;;3.60;2.25;;;17.60;99.90;;;;;;5014699;28;20576;-66
2022/07/11 08:43:18;;;;;;;2.53;2.00;;;17.60;99.90;;;;;;5014299;28;20622;-66
2022/07/11 08:45:47;;;;;;;4.72;2.28;;;17.80;99.90;;;;;;5014277;28;20327;-66
2022/07/11 08:48:16;;;;;;;2.20;2.08;;;17.90;99.90;;;;;;5014062;28;20212;-66
2022/07/11 08:50:42;;;;;;;3.17;2.08;;;17.70;99.90;;;;;;5014184;28;20577;-66
2022/07/11 08:53:11;;;;;;;3.47;1.83;;;17.70;99.90;;;;;;5014331;28;20212;-66
2022/07/11 08:55:38;;;;;;;3.83;2.20;;;17.80;99.90;;;;;;5014810;28;20210;-66
2022/07/11 08:58:07;;;;;;;2.03;1.92;;;17.90;99.90;;;;;;5021148;28;20215;-66
2022/07/11 09:00:35;;;;;;;2.10;1.90;;;18.30;99.90;;;;;;5017005;28;20224;-66
2022/07/11 09:03:04;;;;;;;1.92;1.75;;;18.40;99.90;;;;;;5017695;28;20646;-66
2022/07/11 09:05:32;;;;;;;2.22;2.03;;;18.40;99.90;;;;;;5023842;28;20204;-66
2022/07/11 09:08:00;;;;;;;1.85;1.73;;;18.30;99.90;;;;;;5017818;28;20204;-67
2022/07/11 09:10:27;;;;;;;2.03;1.80;;;18.60;99.90;;;;;;5022119;28;20206;-66
2022/07/11 09:13:02;;;;;;;1.60;1.50;;;18.70;99.90;;;;;;5025725;28;20219;-66
2022/07/11 09:15:33;;;;;;;1.40;1.30;;;18.90;99.90;;;;;;5027837;28;20203;-66
2022/07/11 09:18:00;;;;;;;2.88;1.40;;;18.90;99.90;;;;;;5013033;28;20204;-66
2022/07/11 09:25:19;;;;;;;1.95;1.55;;;19.00;99.90;;;;;;5014032;28;20224;-66
2022/07/11 09:26:05;;;;;;;2.83;1.55;;;19.40;99.90;;;;;;5013813;28;20204;-66
2022/07/11 09:28:33;;;;;;;1.38;1.27;;;19.20;99.90;;;;;;5013202;28;20306;-66
2022/07/11 09:31:00;;;;;;;2.28;1.70;;;19.20;99.90;;;;;;5016481;28;20199;-66
2022/07/11 09:33:27;;;;;;;1.42;1.13;;;19.40;99.90;;;;;;5025748;28;20781;-66
2022/07/11 09:35:55;;;;;;;2.85;1.65;;;19.50;99.90;;;;;;5029460;28;20219;-66
2022/07/11 09:38:22;;;;;;;3.75;1.70;;;19.40;99.90;;;;;;5015302;28;20200;-66
2022/07/11 09:40:50;;;;;;;1.63;1.25;;;19.10;99.90;;;;;;5030993;28;20322;-66
2022/07/11 09:43:25;;;;;;;1.73;0.82;;;19.10;99.90;;;;;;5012711;28;20675;-66
2022/07/11 09:45:52;;;;;;;2.03;0.80;;;19.20;99.90;;;;;;5012531;28;20212;-66
2022/07/11 09:48:19;;;;;;;3.20;1.25;;;19.10;99.90;;;;;;5013352;28;20208;-66
2022/07/11 09:51:00;;;;;;;2.22;0.80;;;19.20;99.90;;;;;;5013728;28;20683;-66
2022/07/11 09:53:27;;;;;;;1.00;1.00;;;19.20;99.90;;;;;;5013534;28;20254;-66
2022/07/11 09:55:53;;;;;;;1.30;1.10;;;19.20;99.90;;;;;;5013609;28;20655;-66
2022/07/11 09:58:22;;;;;;;2.25;0.80;;;19.20;99.90;;;;;;5013057;28;20207;-66
2022/07/11 10:00:50;;;;;;;2.90;0.98;;;19.20;99.90;;;;;;5013148;28;20291;-66
2022/07/11 10:03:17;;;;;;;0.55;0.50;;;19.10;99.90;;;;;;5013233;28;20576;-66
2022/07/11 10:05:44;;;;;;;1.40;0.60;;;19.30;99.90;;;;;;5013393;28;20205;-66
2022/07/11 10:08:12;;;;;;;0.98;0.60;;;19.20;99.90;;;;;;5014815;28;20200;-66
2022/07/11 10:10:39;;;;;;;1.13;0.68;;;19.00;99.90;;;;;;5025648;28;20258;-66
2022/07/11 10:13:06;;;;;;;0.70;0.45;;;19.20;99.90;;;;;;5012954;28;20267;-66
2022/07/11 10:15:36;;;;;;;1.27;0.40;;;19.30;99.90;;;;;;5019577;28;20670;-66
2022/07/11 10:18:10;;;;;;;1.63;0.65;;;19.40;99.90;;;;;;5020913;28;20204;-66
2022/07/11 10:20:45;;;;;;;0.70;0.50;;;19.40;99.90;;;;;;5011889;28;20710;-66
2022/07/11 10:23:24;;;;;;;0.85;0.60;;;19.60;99.90;;;;;;4993982;28;20655;-66
2022/07/11 10:25:58;;;;;;;0.52;0.52;;;19.60;99.90;;;;;;5013218;28;20616;-66
2022/07/11 10:28:33;;;;;;;1.27;0.60;;;20.00;99.90;;;;;;5012036;28;20212;-66
2022/07/11 10:31:00;;;;;;;1.80;0.75;;;20.10;99.90;;;;;;5012857;28;20208;-66
2022/07/11 10:33:28;;;;;;;1.17;0.57;;;20.20;99.90;;;;;;5011954;28;20204;-66
2022/07/11 10:35:55;;;;;;;0.40;0.40;;;20.80;99.90;;;;;;5012232;28;20218;-66
2022/07/11 10:38:24;;;;;;;1.25;0.45;;;21.00;96.80;;;;;;5012945;28;20523;-66
2022/07/11 10:40:53;;;;;;;3.13;0.60;;;21.10;96.20;;;;;;5012693;28;20679;-66
2022/07/11 10:43:38;;;;;;;0.40;0.40;;;21.10;97.00;;;;;;5011735;28;20557;-66
2022/07/11 10:46:07;;;;;;;1.38;0.50;;;20.50;99.90;;;;;;5012668;28;20219;-66
2022/07/11 10:48:35;;;;;;;0.73;0.47;;;20.70;99.20;;;;;;5011949;28;20299;-66
2022/07/11 10:51:23;;;;;;;0.75;0.35;;;20.60;99.60;;;;;;5031116;28;20196;-66
2022/07/11 10:53:53;;;;;;;1.25;0.50;;;20.70;98.90;;;;;;5025478;28;20215;-66
2022/07/11 10:56:44;;;;;;;0.50;0.50;;;21.00;94.10;;;;;;5011590;28;20208;-66
2022/07/11 10:59:15;;;;;;;0.65;0.52;;;21.00;94.60;;;;;;5012396;28;20303;-66
2022/07/11 11:02:19;;;;;;;3.38;0.70;;;21.00;96.50;;;;;;5012093;28;20279;-67
2022/07/11 11:04:51;;;;;;;1.75;0.75;;;21.00;97.70;;;;;;5012371;28;20239;-66
2022/07/11 11:07:36;;;;;;;0.73;0.47;;;20.70;99.90;;;;;;5011829;28;20219;-67
2022/07/11 11:10:06;;;;;;;0.60;0.47;;;20.50;96.30;;;;;;5011774;28;20235;-66
2022/07/11 11:13:10;;;;;;;0.30;0.30;;;20.20;99.90;;;;;;5011350;28;20208;-66
2022/07/11 11:15:41;;;;;;;1.10;0.68;;;20.10;99.90;;;;;;5012497;28;20281;-67
2022/07/11 11:18:37;;;;;;;0.55;0.47;;;20.20;99.90;;;;;;5011907;28;20211;-66
2022/07/11 11:21:20;;;;;;;0.60;0.60;;;20.10;99.90;;;;;;5010956;28;20691;-66
2022/07/11 11:24:06;;;;;;;1.25;0.52;;;20.30;99.90;;;;;;5011582;28;20273;-66
2022/07/11 11:26:53;;;;;;;0.98;0.60;;;20.50;99.90;;;;;;5011559;28;20200;-66
2022/07/11 11:29:25;;;;;;;0.70;0.70;;;20.50;99.90;;;;;;5011411;28;20621;-66
2022/07/11 11:31:55;;;;;;;0.50;0.50;;;20.60;99.90;;;;;;5010228;28;20246;-66
2022/07/11 11:34:22;;;;;;;2.25;1.38;;;20.60;99.90;;;;;;5011666;28;20212;-66
2022/07/11 11:36:57;;;;;;;0.75;0.75;;;20.40;99.90;;;;;;5020168;28;20204;-66
2022/07/11 11:39:28;;;;;;;1.35;0.68;;;20.10;99.90;;;;;;5011448;28;20649;-66
2022/07/11 11:42:02;;;;;;;0.40;0.40;;;19.90;99.90;;;;;;5012080;28;20227;-66
2022/07/11 11:44:29;;;;;;;0.68;0.68;;;20.00;99.90;;;;;;5009604;28;20204;-66
2022/07/11 11:46:55;;;;;;;1.55;0.82;;;19.80;99.90;;;;;;5004711;28;20829;-66
2022/07/11 11:49:22;;;;;;;0.60;0.60;;;19.70;99.90;;;;;;5006853;28;20208;-66
2022/07/11 11:51:49;;;;;;;0.63;0.63;;;19.50;99.90;;;;;;5009281;28;20283;-66
2022/07/11 11:54:24;;;;;;;0.50;0.50;;;19.40;99.90;;;;;;5011226;28;20757;-66
2022/07/11 11:56:51;;;;;;;0.90;0.90;;;19.20;99.90;;;;;;5009919;28;20207;-66
2022/07/11 11:59:19;;;;;;;2.97;1.67;;;19.00;99.90;;;;;;5009482;28;20196;-66
2022/07/11 12:01:47;;;;;;;4.32;2.50;;;19.10;99.90;;;;;;5011524;28;20222;-66
2022/07/11 12:04:15;;;;;;;1.25;1.15;;;19.10;99.90;;;;;;5009698;28;20210;-66
2022/07/11 12:06:43;;;;;;;0.70;0.70;;;19.00;99.90;;;;;;5010219;28;20271;-66
2022/07/11 12:09:11;;;;;;;0.60;0.60;;;19.10;99.90;;;;;;5014990;28;20211;-66
2022/07/11 12:11:39;;;;;;;0.75;0.70;;;19.20;99.90;;;;;;5010713;28;20198;-66
2022/07/11 12:14:07;;;;;;;1.90;0.90;;;19.30;99.90;;;;;;5010966;28;20196;-66
2022/07/11 12:16:41;;;;;;;2.00;0.88;;;19.40;99.90;;;;;;5009439;28;20201;-66
2022/07/11 12:19:09;;;;;;;0.70;0.70;;;19.60;99.90;;;;;;5006767;28;20204;-67
2022/07/11 12:21:36;;;;;;;1.00;1.00;;;19.70;99.90;;;;;;5007687;28;20221;-66
2022/07/11 12:24:05;;;;;;;1.58;1.05;;;19.70;99.90;;;;;;5011695;28;20257;-66
2022/07/11 12:26:37;;;;;;;2.05;1.20;;;19.80;99.90;;;;;;5013733;28;20208;-66
2022/07/11 12:29:10;;;;;;;1.52;0.90;;;20.10;99.90;;;;;;5013809;28;20208;-66
2022/07/11 12:31:50;;;;;;;1.25;1.05;;;20.20;99.90;;;;;;5013835;28;20200;-66
2022/07/11 12:34:19;;;;;;;2.13;1.38;;;20.20;99.90;;;;;;5009318;28;20204;-66
2022/07/11 12:36:47;;;;;;;2.03;0.98;;;20.00;99.90;;;;;;5018841;28;20291;-66
2022/07/11 12:39:24;;;;;;;1.20;1.10;;;20.50;99.90;;;;;;5026222;28;20212;-66
2022/07/11 12:41:52;;;;;;;3.83;1.85;;;20.80;99.90;;;;;;5024328;28;20254;-66
2022/07/11 12:47:09;;;;;;;0.60;0.60;;;20.50;99.90;;;;;;5015190;28;20303;-66
2022/07/11 12:49:39;;;;;;;0.93;0.70;;;20.60;99.90;;;;;;5005279;28;20227;-66
2022/07/11 12:52:06;;;;;;;2.28;0.80;;;20.70;99.90;;;;;;5014464;28;20230;-66
2022/07/11 12:54:34;;;;;;;0.82;0.82;;;20.70;99.90;;;;;;5011920;28;20212;-68
2022/07/11 12:57:02;;;;;;;2.78;1.33;;;20.60;99.90;;;;;;5020255;28;20604;-66
2022/07/11 12:59:31;;;;;;;1.20;1.10;;;20.60;99.90;;;;;;5018508;28;20200;-66
2022/07/11 13:02:00;;;;;;;1.60;1.50;;;20.30;99.90;;;;;;5021148;28;20565;-67
2022/07/11 13:04:36;;;;;;;1.13;1.10;;;20.20;99.90;;;;;;5018525;28;20500;-66